createdAt,value
2022-08-17T00:02:25.161Z,45.82
2022-08-17T00:04:54.838Z,45.71
2022-08-17T00:07:23.875Z,45.30
2022-08-17T00:09:51.552Z,45.38
2022-08-17T00:12:42.744Z,45.33
2022-08-17T00:15:10.640Z,45.56
2022-08-17T00:17:38.720Z,45.27
2022-08-17T00:20:06.982Z,45.50
2022-08-17T00:22:36.809Z,45.70
2022-08-17T00:25:07.076Z,45.46
2022-08-17T00:27:34.718Z,45.37
2022-08-17T00:30:02.330Z,45.26
2022-08-17T00:33:15.898Z,45.40
2022-08-17T00:35:18.761Z,45.52
2022-08-17T00:37:47.714Z,45.50
2022-08-17T00:40:15.722Z,45.41
2022-08-17T00:42:43.654Z,45.61
2022-08-17T00:45:12.593Z,45.63
2022-08-17T00:47:40.213Z,45.43
2022-08-17T00:50:09.912Z,45.40
2022-08-17T00:52:40.137Z,45.53
2022-08-17T00:55:09.490Z,45.72
2022-08-17T00:57:39.040Z,45.44
2022-08-17T01:00:09.983Z,45.82
2022-08-17T01:02:41.666Z,45.71
2022-08-17T01:05:13.833Z,45.49
2022-08-17T01:07:41.686Z,45.51
2022-08-17T01:10:58.158Z,45.70
2022-08-17T01:12:59.439Z,45.69
2022-08-17T01:15:27.148Z,45.33
2022-08-17T01:17:54.767Z,45.66
2022-08-17T01:20:22.381Z,45.42
2022-08-17T01:22:51.583Z,45.65
2022-08-17T01:25:19.302Z,45.76
2022-08-17T01:27:47.018Z,45.66
2022-08-17T01:30:58.988Z,45.60
2022-08-17T01:33:02.469Z,45.67
2022-08-17T01:35:30.167Z,45.69
2022-08-17T01:37:59.119Z,45.67
2022-08-17T01:40:31.319Z,45.80
2022-08-17T01:43:01.069Z,45.91
2022-08-17T01:45:32.023Z,46.00
2022-08-17T01:47:59.661Z,46.04
2022-08-17T01:50:28.648Z,45.92
2022-08-17T01:52:58.096Z,46.30
2022-08-17T01:55:29.680Z,46.22
2022-08-17T01:57:57.351Z,46.30
2022-08-17T02:00:27.042Z,46.44
2022-08-17T02:03:14.510Z,46.47
2022-08-17T02:05:42.168Z,46.75
2022-08-17T02:08:09.744Z,47.04
2022-08-17T02:10:49.325Z,46.72
2022-08-17T02:13:17.974Z,47.03
2022-08-17T02:15:46.124Z,46.86
2022-08-17T02:18:13.816Z,47.07
2022-08-17T02:20:46.985Z,47.00
2022-08-17T02:23:14.641Z,46.85
2022-08-17T02:25:43.301Z,47.14
2022-08-17T02:28:12.326Z,47.14
2022-08-17T02:31:01.694Z,47.18
2022-08-17T02:33:42.030Z,47.11
2022-08-17T02:36:10.327Z,47.23
2022-08-17T02:38:38.064Z,47.32
2022-08-17T02:41:05.726Z,47.36
2022-08-17T02:43:34.866Z,47.19
2022-08-17T02:46:02.473Z,47.36
2022-08-17T02:48:31.950Z,47.60
2022-08-17T02:50:59.929Z,47.25
2022-08-17T02:53:27.631Z,47.28
2022-08-17T02:56:03.282Z,47.14
2022-08-17T02:58:35.156Z,47.24
2022-08-17T03:01:05.331Z,47.29
2022-08-17T03:03:32.963Z,47.38
2022-08-17T03:06:00.721Z,47.37
2022-08-17T03:08:28.442Z,47.51
2022-08-17T03:10:56.049Z,47.57
2022-08-17T03:13:24.096Z,47.50
2022-08-17T03:15:51.728Z,47.61
2022-08-17T03:18:25.539Z,47.40
2022-08-17T03:20:55.141Z,47.43
2022-08-17T03:23:24.001Z,47.76
2022-08-17T03:25:53.152Z,47.58
2022-08-17T03:28:21.143Z,47.58
2022-08-17T03:30:48.849Z,47.82
2022-08-17T03:33:16.886Z,47.80
2022-08-17T03:35:45.934Z,47.67
2022-08-17T03:38:15.238Z,47.64
2022-08-17T03:40:57.337Z,47.62
2022-08-17T03:43:27.661Z,47.54
2022-08-17T03:46:33.992Z,47.67
2022-08-17T03:49:18.228Z,47.59
2022-08-17T03:52:04.899Z,47.78
2022-08-17T03:54:50.512Z,47.53
2022-08-17T03:57:19.080Z,47.63
2022-08-17T03:59:46.748Z,47.64
2022-08-17T04:02:18.390Z,47.71
2022-08-17T04:04:46.004Z,47.72
2022-08-17T04:07:15.076Z,47.86
2022-08-17T04:09:43.533Z,47.68
2022-08-17T04:12:11.515Z,47.80
2022-08-17T04:14:52.127Z,47.70
2022-08-17T04:17:40.104Z,47.78
2022-08-17T04:20:08.805Z,47.83
2022-08-17T04:22:37.734Z,48.01
2022-08-17T04:25:08.290Z,47.78
2022-08-17T04:27:35.931Z,48.00
2022-08-17T04:30:03.657Z,47.98
2022-08-17T04:33:05.366Z,47.74
2022-08-17T04:35:20.371Z,47.92
2022-08-17T04:37:49.368Z,47.79
2022-08-17T04:40:34.863Z,47.95
2022-08-17T04:43:03.779Z,47.85
2022-08-17T04:45:32.427Z,47.92
2022-08-17T04:48:00.659Z,47.96
2022-08-17T04:50:28.315Z,48.00
2022-08-17T04:52:57.567Z,47.99
2022-08-17T04:55:25.347Z,47.83
2022-08-17T04:57:53.193Z,47.79
2022-08-17T05:00:21.066Z,47.72
2022-08-17T05:02:49.626Z,47.79
2022-08-17T05:05:19.594Z,47.65
2022-08-17T05:07:48.726Z,47.68
2022-08-17T05:10:17.993Z,47.71
2022-08-17T05:12:45.619Z,47.86
2022-08-17T05:15:15.869Z,47.91
2022-08-17T05:17:43.597Z,47.63
2022-08-17T05:20:11.871Z,47.70
2022-08-17T05:22:50.129Z,47.89
2022-08-17T05:25:21.267Z,47.85
2022-08-17T05:27:54.030Z,48.13
2022-08-17T05:30:21.657Z,48.15
2022-08-17T05:32:54.000Z,48.10
2022-08-17T05:35:21.864Z,47.96
2022-08-17T05:37:49.485Z,48.07
2022-08-17T05:40:17.102Z,48.04
2022-08-17T05:42:46.233Z,48.04
2022-08-17T05:45:15.629Z,48.17
2022-08-17T05:47:43.800Z,48.13
2022-08-17T05:50:32.269Z,48.09
2022-08-17T05:53:23.605Z,48.09
2022-08-17T05:56:29.674Z,48.32
2022-08-17T05:59:05.172Z,48.63
2022-08-17T06:01:36.582Z,48.99
2022-08-17T06:04:10.834Z,49.25
2022-08-17T06:06:41.151Z,49.28
2022-08-17T06:09:25.879Z,49.13
2022-08-17T06:12:00.134Z,49.21
2022-08-17T06:14:50.163Z,49.51
2022-08-17T06:17:19.628Z,49.52
2022-08-17T06:19:50.138Z,49.41
2022-08-17T06:22:19.574Z,49.51
2022-08-17T06:24:49.980Z,49.48
2022-08-17T06:27:21.018Z,49.32
2022-08-17T06:29:59.031Z,49.35
2022-08-17T06:32:26.661Z,48.92
2022-08-17T06:34:55.158Z,49.29
2022-08-17T06:37:48.766Z,49.29
2022-08-17T06:40:29.644Z,49.37
2022-08-17T06:43:12.584Z,49.01
2022-08-17T06:45:44.022Z,48.73
2022-08-17T06:48:14.005Z,48.64
2022-08-17T06:50:45.237Z,48.53
2022-08-17T06:53:15.007Z,48.72
2022-08-17T06:55:45.116Z,48.61
2022-08-17T06:58:16.211Z,48.39
2022-08-17T07:00:47.098Z,48.43
2022-08-17T07:03:18.873Z,48.60
2022-08-17T07:05:47.574Z,48.75
2022-08-17T07:08:18.486Z,48.82
2022-08-17T07:10:48.130Z,48.89
2022-08-17T07:13:26.447Z,48.86
2022-08-17T07:16:04.662Z,48.83
2022-08-17T07:18:33.130Z,48.90
2022-08-17T07:21:04.825Z,49.00
2022-08-17T07:23:38.618Z,48.86
2022-08-17T07:26:06.718Z,48.84
2022-08-17T07:28:34.466Z,49.19
2022-08-17T07:31:03.802Z,48.99
2022-08-17T07:33:32.973Z,49.05
2022-08-17T07:36:00.890Z,49.10
2022-08-17T07:38:29.230Z,49.17
2022-08-17T07:41:05.033Z,49.15
2022-08-17T07:43:33.264Z,49.38
2022-08-17T07:46:22.616Z,49.22
2022-08-17T07:48:51.130Z,49.15
2022-08-17T07:51:29.901Z,49.25
2022-08-17T07:54:13.165Z,49.22
2022-08-17T07:56:44.626Z,49.27
2022-08-17T07:59:14.917Z,49.24
2022-08-17T08:01:46.159Z,49.35
2022-08-17T08:04:49.994Z,49.40
2022-08-17T08:07:24.594Z,49.08
2022-08-17T08:10:01.536Z,49.30
2022-08-17T08:12:34.304Z,49.37
2022-08-17T08:15:05.082Z,49.14
2022-08-17T08:17:36.445Z,49.26
2022-08-17T08:20:19.695Z,49.33
2022-08-17T08:22:58.874Z,48.95
2022-08-17T08:25:32.724Z,49.45
2022-08-17T08:28:08.435Z,49.17
2022-08-17T08:30:37.171Z,49.49
2022-08-17T08:33:27.308Z,49.44
2022-08-17T08:35:56.603Z,49.61
2022-08-17T08:38:30.797Z,49.68
2022-08-17T08:41:05.304Z,49.75
2022-08-17T08:43:37.915Z,49.42
2022-08-17T08:46:08.993Z,49.59
2022-08-17T08:48:56.329Z,49.67
2022-08-17T08:51:31.750Z,49.68
2022-08-17T08:54:03.268Z,49.75
2022-08-17T08:56:35.325Z,49.88
2022-08-17T08:59:08.661Z,49.75
2022-08-17T09:01:38.758Z,49.88
2022-08-17T09:04:24.699Z,50.05
2022-08-17T09:06:59.345Z,50.22
2022-08-17T09:09:30.231Z,50.42
2022-08-17T09:12:04.117Z,49.97
2022-08-17T09:14:46.904Z,50.32
2022-08-17T09:17:16.474Z,50.25
2022-08-17T09:19:48.993Z,50.05
2022-08-17T09:22:24.749Z,50.28
2022-08-17T09:24:57.177Z,50.59
2022-08-17T09:27:28.142Z,50.38
2022-08-17T09:29:58.186Z,50.36
2022-08-17T09:32:29.540Z,50.24
2022-08-17T09:35:01.440Z,50.27
2022-08-17T09:37:30.611Z,50.50
2022-08-17T09:40:07.885Z,50.43
2022-08-17T09:42:39.321Z,50.32
2022-08-17T09:45:11.338Z,50.46
2022-08-17T09:47:45.394Z,50.35
2022-08-17T09:50:17.035Z,50.63
2022-08-17T09:52:44.652Z,50.19
2022-08-17T09:55:12.248Z,50.72
2022-08-17T09:57:49.263Z,50.72
2022-08-17T10:00:23.598Z,50.65
2022-08-17T10:03:28.208Z,50.61
2022-08-17T10:06:00.946Z,50.76
2022-08-17T10:08:35.045Z,50.72
2022-08-17T10:11:18.377Z,51.05
2022-08-17T10:13:53.531Z,51.34
2022-08-17T10:16:25.597Z,51.95
2022-08-17T10:19:02.734Z,52.06
2022-08-17T10:21:49.775Z,52.13
2022-08-17T10:25:21.807Z,52.02
2022-08-17T10:27:41.839Z,51.57
2022-08-17T10:30:10.850Z,51.46
2022-08-17T10:32:47.658Z,51.45
2022-08-17T10:35:25.743Z,51.38
2022-08-17T10:38:41.034Z,51.53
2022-08-17T10:41:21.293Z,51.63
2022-08-17T10:44:36.618Z,51.67
2022-08-17T10:46:54.351Z,51.59
2022-08-17T10:49:27.861Z,51.63
2022-08-17T10:51:56.124Z,51.72
2022-08-17T10:55:06.408Z,51.71
2022-08-17T10:57:38.063Z,51.50
2022-08-17T11:00:15.897Z,51.55
2022-08-17T11:02:49.893Z,51.39
2022-08-17T11:05:24.137Z,51.42
2022-08-17T11:08:23.193Z,51.45
2022-08-17T11:10:57.510Z,51.26
2022-08-17T11:13:31.157Z,51.01
2022-08-17T11:16:08.739Z,51.07
2022-08-17T11:18:45.119Z,51.20
2022-08-17T11:21:47.478Z,51.00
2022-08-17T11:24:20.314Z,51.13
2022-08-17T11:27:02.078Z,51.32
2022-08-17T11:29:34.754Z,50.94
2022-08-17T11:32:07.178Z,50.77
2022-08-17T11:34:49.759Z,51.13
2022-08-17T11:37:37.321Z,51.02
2022-08-17T11:40:48.129Z,50.84
2022-08-17T11:43:28.721Z,50.78
2022-08-17T11:46:11.940Z,50.61
2022-08-17T11:49:00.892Z,50.71
2022-08-17T11:52:01.773Z,50.93
2022-08-17T11:54:44.884Z,50.58
2022-08-17T11:58:00.915Z,50.70
2022-08-17T12:00:56.323Z,50.83
2022-08-17T12:03:42.417Z,50.91
2022-08-17T12:06:30.683Z,50.83
2022-08-17T12:09:07.776Z,50.64
2022-08-17T12:11:57.815Z,50.62
2022-08-17T12:14:51.692Z,50.56
2022-08-17T12:17:41.613Z,50.69
2022-08-17T12:20:15.154Z,50.71
2022-08-17T12:22:48.086Z,50.79
2022-08-17T12:25:17.854Z,50.72
2022-08-17T12:28:05.067Z,50.85
2022-08-17T12:30:35.398Z,50.70
2022-08-17T12:33:03.116Z,50.69
2022-08-17T12:35:35.096Z,50.68
2022-08-17T12:38:02.962Z,50.95
2022-08-17T12:40:32.275Z,50.79
2022-08-17T12:43:00.723Z,50.83
2022-08-17T12:45:30.299Z,50.75
2022-08-17T12:48:02.638Z,51.01
2022-08-17T12:50:32.128Z,50.91
2022-08-17T12:53:02.565Z,50.76
2022-08-17T12:55:32.757Z,50.84
2022-08-17T12:58:02.002Z,50.79
2022-08-17T13:00:37.928Z,50.73
2022-08-17T13:03:07.720Z,50.74
2022-08-17T13:05:39.338Z,51.00
2022-08-17T13:08:16.190Z,50.75
2022-08-17T13:10:54.998Z,50.89
2022-08-17T13:13:23.926Z,51.01
2022-08-17T13:15:55.186Z,51.01
2022-08-17T13:18:40.325Z,51.29
2022-08-17T13:21:08.721Z,51.08
2022-08-17T13:23:37.709Z,50.96
2022-08-17T13:26:06.686Z,51.28
2022-08-17T13:28:36.598Z,51.25
2022-08-17T13:31:25.009Z,51.08
2022-08-17T13:33:52.730Z,50.96
2022-08-17T13:36:28.200Z,51.02
2022-08-17T13:39:06.591Z,51.08
2022-08-17T13:41:36.261Z,51.34
2022-08-17T13:44:31.760Z,51.09
2022-08-17T13:46:59.565Z,51.15
2022-08-17T13:49:48.129Z,51.27
2022-08-17T13:52:32.548Z,51.44
2022-08-17T13:55:02.889Z,51.07
2022-08-17T13:57:30.472Z,51.15
2022-08-17T14:00:07.235Z,51.22
2022-08-17T14:02:35.118Z,51.25
2022-08-17T14:05:06.110Z,51.32
2022-08-17T14:07:35.234Z,51.25
2022-08-17T14:10:07.183Z,51.13
2022-08-17T14:12:35.223Z,51.21
2022-08-17T14:15:02.998Z,51.11
2022-08-17T14:17:36.338Z,50.85
2022-08-17T14:20:07.564Z,51.06
2022-08-17T14:22:36.505Z,51.03
2022-08-17T14:25:08.704Z,51.04
2022-08-17T14:27:51.843Z,50.90
2022-08-17T14:30:21.582Z,50.92
2022-08-17T14:32:51.766Z,50.96
2022-08-17T14:35:22.290Z,50.75
2022-08-17T14:37:50.138Z,50.87
2022-08-17T14:40:22.569Z,50.42
2022-08-17T14:42:50.769Z,50.52
2022-08-17T14:45:32.171Z,50.26
2022-08-17T14:48:02.645Z,50.01
2022-08-17T14:50:30.323Z,50.01
2022-08-17T14:53:06.154Z,49.55
2022-08-17T14:55:36.117Z,49.38
2022-08-17T14:58:04.900Z,49.06
2022-08-17T15:00:32.687Z,49.07
2022-08-17T15:03:00.822Z,49.04
2022-08-17T15:05:30.515Z,48.97
2022-08-17T15:07:58.269Z,48.86
2022-08-17T15:10:26.136Z,48.64
2022-08-17T15:12:55.225Z,48.76
2022-08-17T15:15:23.202Z,48.71
2022-08-17T15:17:51.139Z,48.47
2022-08-17T15:20:20.227Z,48.25
2022-08-17T15:22:49.582Z,48.33
2022-08-17T15:25:17.565Z,47.97
2022-08-17T15:27:45.342Z,47.63
2022-08-17T15:30:15.099Z,47.37
2022-08-17T15:32:46.865Z,47.67
2022-08-17T15:35:28.005Z,47.60
2022-08-17T15:37:57.715Z,47.67
2022-08-17T15:40:25.392Z,47.77
2022-08-17T15:42:53.108Z,47.83
2022-08-17T15:45:24.462Z,48.02
2022-08-17T15:47:52.384Z,48.25
2022-08-17T15:50:20.525Z,48.75
2022-08-17T15:52:48.274Z,49.52
2022-08-17T15:55:17.206Z,49.13
2022-08-17T15:57:47.418Z,49.39
2022-08-17T16:00:15.789Z,49.33
2022-08-17T16:03:44.412Z,49.46
2022-08-17T16:05:33.149Z,49.31
2022-08-17T16:08:00.841Z,49.17
2022-08-17T16:10:34.855Z,49.34
2022-08-17T16:13:03.774Z,49.22
2022-08-17T16:15:32.197Z,49.19
2022-08-17T16:18:01.317Z,49.37
2022-08-17T16:20:30.557Z,49.35
2022-08-17T16:22:58.248Z,49.21
2022-08-17T16:25:50.297Z,49.32
2022-08-17T16:28:15.222Z,48.96
2022-08-17T16:30:42.930Z,48.84
2022-08-17T16:33:12.370Z,48.31
2022-08-17T16:35:41.786Z,48.07
2022-08-17T16:38:09.599Z,47.82
2022-08-17T16:40:38.409Z,47.89
2022-08-17T16:43:12.032Z,47.58
2022-08-17T16:45:40.480Z,47.24
2022-08-17T16:48:08.693Z,46.92
2022-08-17T16:50:37.801Z,46.95
2022-08-17T16:53:07.447Z,46.64
2022-08-17T16:55:35.898Z,46.78
2022-08-17T16:58:04.646Z,46.52
2022-08-17T17:00:33.242Z,46.35
2022-08-17T17:03:19.693Z,46.29
2022-08-17T17:05:56.861Z,45.85
2022-08-17T17:08:27.026Z,45.62
2022-08-17T17:10:56.885Z,45.60
2022-08-17T17:13:27.520Z,45.43
2022-08-17T17:15:56.856Z,45.62
2022-08-17T17:18:33.292Z,45.55
2022-08-17T17:21:02.914Z,45.61
2022-08-17T17:23:35.844Z,45.10
2022-08-17T17:26:09.018Z,45.15
2022-08-17T17:28:40.605Z,45.56
2022-08-17T17:31:11.605Z,45.00
2022-08-17T17:33:44.022Z,45.09
2022-08-17T17:36:21.024Z,45.18
2022-08-17T17:38:49.942Z,45.08
2022-08-17T17:41:25.845Z,45.10
2022-08-17T17:44:01.827Z,45.00
2022-08-17T17:46:33.308Z,45.28
2022-08-17T17:49:01.308Z,45.11
2022-08-17T17:52:06.440Z,45.13
2022-08-17T17:54:29.416Z,45.11
2022-08-17T17:57:00.048Z,45.13
2022-08-17T17:59:30.407Z,45.26
2022-08-17T18:02:08.181Z,45.16
2022-08-17T18:04:41.354Z,45.27
2022-08-17T18:07:18.245Z,44.96
2022-08-17T18:10:01.595Z,44.84
2022-08-17T18:12:35.815Z,44.95
2022-08-17T18:15:29.629Z,45.00
2022-08-17T18:18:25.396Z,45.31
2022-08-17T18:20:56.281Z,44.96
2022-08-17T18:23:28.758Z,44.82
2022-08-17T18:25:57.030Z,45.19
2022-08-17T18:28:26.483Z,45.32
2022-08-17T18:31:09.624Z,45.00
2022-08-17T18:33:38.093Z,45.22
2022-08-17T18:36:06.752Z,45.03
2022-08-17T18:38:37.276Z,44.89
2022-08-17T18:41:19.374Z,45.12
2022-08-17T18:43:58.669Z,45.01
2022-08-17T18:46:29.752Z,44.98
2022-08-17T18:49:00.195Z,44.88
2022-08-17T18:51:41.510Z,44.78
2022-08-17T18:54:18.261Z,44.74
2022-08-17T18:56:50.314Z,44.90
2022-08-17T18:59:26.839Z,44.74
2022-08-17T19:02:26.372Z,45.06
2022-08-17T19:05:08.886Z,44.89
2022-08-17T19:07:38.750Z,45.25
2022-08-17T19:10:14.546Z,45.39
2022-08-17T19:12:45.199Z,45.52
2022-08-17T19:15:14.690Z,45.26
2022-08-17T19:17:46.766Z,45.70
2022-08-17T19:20:17.476Z,45.61
2022-08-17T19:22:51.332Z,46.10
2022-08-17T19:25:24.068Z,45.86
2022-08-17T19:27:58.440Z,46.19
2022-08-17T19:30:26.365Z,46.43
2022-08-17T19:32:54.006Z,46.21
2022-08-17T19:35:22.137Z,46.28
2022-08-17T19:37:56.404Z,46.58
2022-08-17T19:40:51.852Z,46.48
2022-08-17T19:43:21.376Z,46.76
2022-08-17T19:45:55.985Z,46.98
2022-08-17T19:48:28.132Z,47.11
2022-08-17T19:50:58.985Z,47.23
2022-08-17T19:53:47.820Z,47.11
2022-08-17T19:56:31.821Z,47.19
2022-08-17T19:59:02.079Z,47.32
2022-08-17T20:01:35.103Z,47.40
2022-08-17T20:04:07.451Z,47.18
2022-08-17T20:06:35.706Z,47.52
2022-08-17T20:09:10.556Z,47.46
2022-08-17T20:11:44.482Z,47.35
2022-08-17T20:14:14.302Z,47.65
2022-08-17T20:16:41.970Z,47.48
2022-08-17T20:19:12.664Z,47.62
2022-08-17T20:21:42.207Z,47.82
2022-08-17T20:24:17.346Z,47.86
2022-08-17T20:26:55.463Z,47.80
2022-08-17T20:29:37.126Z,48.00
2022-08-17T20:32:26.069Z,48.07
2022-08-17T20:35:25.035Z,47.71
2022-08-17T20:37:54.386Z,48.18
2022-08-17T20:40:33.562Z,47.92
2022-08-17T20:43:40.020Z,48.25
2022-08-17T20:46:11.570Z,47.84
2022-08-17T20:48:46.867Z,47.95
2022-08-17T20:51:20.206Z,47.72
2022-08-17T20:54:08.561Z,48.02
2022-08-17T20:56:51.454Z,48.13
2022-08-17T20:59:56.819Z,48.03
2022-08-17T21:02:27.061Z,48.17
2022-08-17T21:05:22.681Z,47.96
2022-08-17T21:07:54.536Z,48.28
2022-08-17T21:10:31.676Z,48.21
2022-08-17T21:13:01.240Z,48.05
2022-08-17T21:15:31.727Z,48.10
2022-08-17T21:18:06.563Z,48.41
2022-08-17T21:20:40.143Z,48.15
2022-08-17T21:23:32.713Z,48.44
2022-08-17T21:26:17.301Z,48.17
2022-08-17T21:29:00.431Z,48.17
2022-08-17T21:31:32.063Z,48.15
2022-08-17T21:34:33.849Z,48.30
2022-08-17T21:37:29.599Z,48.50
2022-08-17T21:39:58.996Z,48.51
2022-08-17T21:42:29.046Z,48.58
2022-08-17T21:44:58.085Z,49.00
2022-08-17T21:47:26.678Z,49.04
2022-08-17T21:49:56.500Z,48.99
2022-08-17T21:52:25.413Z,49.42
2022-08-17T21:54:54.090Z,49.27
2022-08-17T21:57:23.008Z,50.44
2022-08-17T21:59:55.229Z,50.78
2022-08-17T22:02:24.921Z,50.51
2022-08-17T22:05:02.145Z,50.39
2022-08-17T22:07:38.105Z,49.98
2022-08-17T22:10:06.453Z,50.89
2022-08-17T22:12:34.089Z,50.65
2022-08-17T22:15:04.154Z,52.19
2022-08-17T22:17:35.817Z,51.27
2022-08-17T22:20:07.406Z,50.51
2022-08-17T22:22:59.478Z,51.41
2022-08-17T22:25:30.995Z,51.46
2022-08-17T22:28:00.041Z,50.48
2022-08-17T22:30:35.374Z,51.37
2022-08-17T22:33:23.585Z,51.41
2022-08-17T22:35:53.301Z,52.74
2022-08-17T22:38:30.105Z,50.72
2022-08-17T22:41:34.341Z,50.71
2022-08-17T22:44:08.980Z,50.71
2022-08-17T22:46:39.593Z,51.52
2022-08-17T22:49:07.581Z,51.19
2022-08-17T22:51:36.528Z,52.04
2022-08-17T22:54:30.605Z,52.83
2022-08-17T22:57:18.943Z,52.38
2022-08-17T22:59:48.249Z,51.78
2022-08-17T23:02:23.233Z,51.79
2022-08-17T23:04:52.581Z,50.90
2022-08-17T23:07:21.699Z,51.10
2022-08-17T23:09:50.435Z,51.19
2022-08-17T23:12:26.203Z,50.97
2022-08-17T23:14:58.395Z,50.93
2022-08-17T23:17:27.493Z,51.08
2022-08-17T23:19:55.526Z,51.12
2022-08-17T23:22:24.497Z,50.78
2022-08-17T23:24:52.140Z,51.01
2022-08-17T23:27:19.985Z,51.35
2022-08-17T23:29:48.622Z,51.05
2022-08-17T23:32:16.935Z,51.68
2022-08-17T23:34:46.669Z,51.32
2022-08-17T23:37:15.208Z,50.83
2022-08-17T23:39:44.942Z,51.84
2022-08-17T23:42:14.091Z,50.79
2022-08-17T23:44:43.720Z,50.66
2022-08-17T23:47:11.645Z,51.14
2022-08-17T23:49:41.641Z,50.99
2022-08-17T23:52:12.554Z,51.07
2022-08-17T23:54:46.555Z,51.42
2022-08-17T23:57:15.789Z,50.93
2022-08-17T23:59:46.533Z,51.18
